createdAt,value
2018-11-11T00:03:27.782Z,12.80
2018-11-11T00:08:27.449Z,12.80
2018-11-11T00:13:34.812Z,12.80
2018-11-11T00:18:35.303Z,12.70
2018-11-11T00:23:44.469Z,12.70
2018-11-11T00:28:50.626Z,12.70
2018-11-11T00:33:50.908Z,12.70
2018-11-11T00:38:55.026Z,12.80
2018-11-11T00:44:03.911Z,12.80
2018-11-11T00:49:03.953Z,12.80
2018-11-11T00:54:12.700Z,12.80
2018-11-11T00:59:21.084Z,12.90
2018-11-11T01:04:20.622Z,12.90
2018-11-11T01:09:21.528Z,12.90
2018-11-11T01:14:32.174Z,12.90
2018-11-11T01:19:31.844Z,12.90
2018-11-11T01:24:35.246Z,13.00
2018-11-11T01:29:41.677Z,13.00
2018-11-11T01:34:49.498Z,13.00
2018-11-11T01:39:46.648Z,13.00
2018-11-11T01:44:53.677Z,13.00
2018-11-11T01:50:09.437Z,13.00
2018-11-11T01:55:07.379Z,13.00
2018-11-11T02:00:11.743Z,12.90
2018-11-11T02:05:10.078Z,12.80
2018-11-11T02:10:14.805Z,12.70
2018-11-11T02:15:18.734Z,12.70
2018-11-11T02:20:22.657Z,12.70
2018-11-11T02:25:32.055Z,12.70
2018-11-11T02:30:40.652Z,12.70
2018-11-11T02:35:54.156Z,12.80
2018-11-11T02:40:59.547Z,12.80
2018-11-11T02:46:07.604Z,12.80
2018-11-11T02:51:08.064Z,12.80
2018-11-11T02:56:52.269Z,12.80
2018-11-11T03:01:50.889Z,12.90
2018-11-11T03:07:08.314Z,12.90
2018-11-11T03:12:15.336Z,12.90
2018-11-11T03:17:49.348Z,12.90
2018-11-11T03:23:07.937Z,12.90
2018-11-11T03:28:14.144Z,12.80
2018-11-11T03:33:52.942Z,12.80
2018-11-11T03:38:58.347Z,12.80
2018-11-11T03:44:01.591Z,12.80
2018-11-11T03:49:12.382Z,12.80
2018-11-11T03:54:22.301Z,12.80
2018-11-11T03:59:39.317Z,12.80
2018-11-11T04:04:54.945Z,12.80
2018-11-11T04:10:03.068Z,12.80
2018-11-11T04:15:16.257Z,12.80
2018-11-11T04:20:40.225Z,12.80
2018-11-11T04:25:46.152Z,12.80
2018-11-11T04:30:45.641Z,12.80
2018-11-11T04:35:49.743Z,12.80
2018-11-11T04:41:09.710Z,12.80
2018-11-11T04:46:09.652Z,12.80
2018-11-11T04:51:10.321Z,12.80
2018-11-11T04:56:17.147Z,12.80
2018-11-11T05:01:35.497Z,12.90
2018-11-11T05:06:34.998Z,12.90
2018-11-11T05:11:43.526Z,12.80
2018-11-11T05:16:43.163Z,12.80
2018-11-11T05:22:06.351Z,12.80
2018-11-11T05:32:41.438Z,12.80
2018-11-11T05:38:02.610Z,12.70
2018-11-11T05:43:06.637Z,12.70
2018-11-11T05:48:21.063Z,12.70
2018-11-11T05:53:28.281Z,12.70
2018-11-11T05:58:45.764Z,12.60
2018-11-11T06:03:52.461Z,12.50
2018-11-11T06:09:06.157Z,12.40
2018-11-11T06:14:23.405Z,12.20
2018-11-11T06:19:32.456Z,12.10
2018-11-11T06:24:32.791Z,12.10
2018-11-11T06:29:47.681Z,12.10
2018-11-11T06:35:01.298Z,11.90
2018-11-11T06:40:06.887Z,11.80
2018-11-11T06:45:23.845Z,11.80
2018-11-11T06:50:32.878Z,11.70
2018-11-11T06:55:59.328Z,11.80
2018-11-11T07:01:09.929Z,11.90
2018-11-11T07:06:23.957Z,11.90
2018-11-11T07:11:38.226Z,12.00
2018-11-11T07:16:51.191Z,12.10
2018-11-11T07:22:04.637Z,12.20
2018-11-11T07:27:08.274Z,12.30
2018-11-11T07:32:24.314Z,12.40
2018-11-11T07:37:35.243Z,12.60
2018-11-11T07:42:35.160Z,12.60
2018-11-11T07:47:47.496Z,12.70
2018-11-11T07:52:50.508Z,12.80
2018-11-11T07:57:53.813Z,12.90
2018-11-11T08:03:08.884Z,12.90
2018-11-11T08:08:08.290Z,12.80
2018-11-11T08:13:08.871Z,12.80
2018-11-11T08:18:18.700Z,12.80
2018-11-11T08:23:21.562Z,12.80
2018-11-11T08:28:22.002Z,12.90
2018-11-11T08:33:23.143Z,12.90
2018-11-11T08:38:28.858Z,12.90
2018-11-11T08:43:26.422Z,12.90
2018-11-11T08:48:37.107Z,12.80
2018-11-11T08:53:45.341Z,12.90
2018-11-11T08:58:44.684Z,12.80
2018-11-11T09:03:40.356Z,12.80
2018-11-11T09:08:50.180Z,13.00
2018-11-11T09:13:55.119Z,13.00
2018-11-11T09:18:55.137Z,13.20
2018-11-11T09:24:01.475Z,13.30
2018-11-11T09:29:07.914Z,13.40
2018-11-11T09:34:13.351Z,13.60
2018-11-11T09:44:29.497Z,13.70
2018-11-11T09:49:45.348Z,13.80
2018-11-11T09:54:44.139Z,13.80
2018-11-11T09:59:51.522Z,13.80
2018-11-11T10:04:49.901Z,13.80
2018-11-11T10:09:56.848Z,13.80
2018-11-11T10:15:03.489Z,13.80
2018-11-11T10:25:39.299Z,13.90
2018-11-11T10:30:32.907Z,14.30
2018-11-11T10:35:56.269Z,14.40
2018-11-11T10:40:52.049Z,14.50
2018-11-11T10:45:47.607Z,14.70
2018-11-11T10:50:51.802Z,14.60
2018-11-11T10:55:47.135Z,14.60
2018-11-11T11:00:40.902Z,14.60
2018-11-11T11:05:45.428Z,14.60
2018-11-11T11:10:51.160Z,14.60
2018-11-11T11:16:05.563Z,14.60
2018-11-11T11:21:13.921Z,14.60
2018-11-11T11:26:06.999Z,14.60
2018-11-11T11:31:04.053Z,14.60
2018-11-11T11:36:05.593Z,14.70
2018-11-11T11:41:00.521Z,14.90
2018-11-11T11:45:55.582Z,14.90
2018-11-11T11:50:51.554Z,14.90
2018-11-11T11:55:47.110Z,14.90
2018-11-11T12:00:46.206Z,14.80
2018-11-11T12:05:41.197Z,14.80
2018-11-11T12:10:36.773Z,14.70
2018-11-11T12:15:32.771Z,14.80
2018-11-11T12:20:28.526Z,14.80
2018-11-11T12:25:24.008Z,14.90
2018-11-11T12:30:19.951Z,14.90
2018-11-11T12:35:16.121Z,14.90
2018-11-11T12:40:14.306Z,14.90
2018-11-11T12:45:10.721Z,14.80
2018-11-11T12:50:06.773Z,14.90
2018-11-11T12:55:08.202Z,14.80
2018-11-11T13:00:03.237Z,14.70
2018-11-11T13:04:59.250Z,14.50
2018-11-11T13:09:58.472Z,14.20
2018-11-11T13:14:56.876Z,14.10
2018-11-11T13:19:56.900Z,13.80
2018-11-11T13:24:54.908Z,13.60
2018-11-11T13:29:53.087Z,13.40
2018-11-11T13:34:51.082Z,13.20
2018-11-11T13:39:51.945Z,13.10
2018-11-11T13:44:52.523Z,13.00
2018-11-11T13:50:17.166Z,13.00
2018-11-11T13:55:12.214Z,13.10
2018-11-11T14:00:12.350Z,13.00
2018-11-11T14:05:08.903Z,13.10
2018-11-11T14:10:06.399Z,13.20
2018-11-11T14:15:06.765Z,13.30
2018-11-11T14:20:07.625Z,13.30
2018-11-11T14:25:05.049Z,13.30
2018-11-11T14:30:06.710Z,13.30
2018-11-11T14:35:04.540Z,13.40
2018-11-11T14:40:03.243Z,13.40
2018-11-11T14:45:02.094Z,13.40
2018-11-11T14:50:00.473Z,13.30
2018-11-11T14:55:01.333Z,13.30
2018-11-11T15:00:02.226Z,13.20
2018-11-11T15:05:08.054Z,13.20
2018-11-11T15:10:05.100Z,13.10
2018-11-11T15:15:06.606Z,13.10
2018-11-11T15:20:04.105Z,13.00
2018-11-11T15:25:06.562Z,13.00
2018-11-11T15:30:07.832Z,13.10
2018-11-11T15:35:07.462Z,13.10
2018-11-11T15:40:08.449Z,13.10
2018-11-11T15:45:09.603Z,13.10
2018-11-11T15:50:10.796Z,13.10
2018-11-11T15:55:17.405Z,13.10
2018-11-11T16:00:17.429Z,13.00
2018-11-11T16:05:18.768Z,13.00
2018-11-11T16:10:19.865Z,12.90
2018-11-11T16:15:20.443Z,12.80
2018-11-11T16:20:23.391Z,12.80
2018-11-11T16:25:24.652Z,12.80
2018-11-11T16:30:26.611Z,12.90
2018-11-11T16:35:33.538Z,12.90
2018-11-11T16:40:32.555Z,13.00
2018-11-11T16:45:33.717Z,13.00
2018-11-11T16:50:35.407Z,13.00
2018-11-11T16:55:44.113Z,13.00
2018-11-11T17:00:44.663Z,13.00
2018-11-11T17:05:39.707Z,13.10
2018-11-11T17:10:39.338Z,13.20
2018-11-11T17:15:48.484Z,13.30
2018-11-11T17:20:45.366Z,13.30
2018-11-11T17:25:43.290Z,13.30
2018-11-11T17:30:44.134Z,13.30
2018-11-11T17:35:42.802Z,13.30
2018-11-11T17:40:41.658Z,13.20
2018-11-11T17:45:41.841Z,13.20
2018-11-11T17:50:39.668Z,13.20
2018-11-11T17:55:42.262Z,13.10
2018-11-11T18:00:43.820Z,13.00
2018-11-11T18:05:52.622Z,12.90
2018-11-11T18:11:03.639Z,12.70
2018-11-11T18:16:05.954Z,12.60
2018-11-11T18:21:14.302Z,12.60
2018-11-11T18:26:31.798Z,12.50
2018-11-11T18:31:34.381Z,12.40
2018-11-11T18:36:46.371Z,12.40
2018-11-11T18:41:51.305Z,12.40
2018-11-11T18:46:52.878Z,12.40
2018-11-11T18:51:59.423Z,12.40
2018-11-11T18:56:58.931Z,12.50
2018-11-11T19:02:03.965Z,12.50
2018-11-11T19:07:07.206Z,12.50
2018-11-11T19:12:13.171Z,12.30
2018-11-11T19:17:17.134Z,12.30
2018-11-11T19:22:23.155Z,12.20
2018-11-11T19:27:34.461Z,12.10
2018-11-11T19:32:37.319Z,12.00
2018-11-11T19:37:43.731Z,11.90
2018-11-11T19:42:58.073Z,11.80
2018-11-11T19:47:59.442Z,11.80
2018-11-11T19:53:07.955Z,11.80
2018-11-11T19:58:13.249Z,11.70
2018-11-11T20:03:27.132Z,11.50
2018-11-11T20:08:40.523Z,11.40
2018-11-11T20:13:48.366Z,11.30
2018-11-11T20:18:56.635Z,11.20
2018-11-11T20:24:05.851Z,11.10
2018-11-11T20:29:14.966Z,11.00
2018-11-11T20:34:24.263Z,11.00
2018-11-11T20:39:35.668Z,11.00
2018-11-11T20:44:45.324Z,11.00
2018-11-11T20:50:11.010Z,11.00
2018-11-11T20:55:23.903Z,11.00
2018-11-11T21:00:29.734Z,11.00
2018-11-11T21:05:39.307Z,11.10
2018-11-11T21:11:03.916Z,11.10
2018-11-11T21:16:13.574Z,11.10
2018-11-11T21:21:30.833Z,11.00
2018-11-11T21:26:50.780Z,11.10
2018-11-11T21:32:02.630Z,11.10
2018-11-11T21:37:27.242Z,11.10
2018-11-11T21:42:34.809Z,11.20
2018-11-11T21:47:41.934Z,11.30
2018-11-11T21:52:50.969Z,11.30
2018-11-11T21:58:08.177Z,11.30
2018-11-11T22:03:21.349Z,11.30
2018-11-11T22:08:30.960Z,11.30
2018-11-11T22:13:41.490Z,11.40
2018-11-11T22:18:46.665Z,11.50
2018-11-11T22:29:11.858Z,11.50
2018-11-11T22:34:14.434Z,11.60
2018-11-11T22:39:33.190Z,11.60
2018-11-11T22:44:43.810Z,11.60
2018-11-11T22:50:04.304Z,11.60
2018-11-11T23:00:46.408Z,11.60
2018-11-11T23:06:04.886Z,11.60
2018-11-11T23:11:05.926Z,11.60
2018-11-11T23:16:09.300Z,11.70
2018-11-11T23:21:27.199Z,11.70
2018-11-11T23:26:27.519Z,11.80
2018-11-11T23:31:42.248Z,11.80
2018-11-11T23:36:44.249Z,11.80
2018-11-11T23:41:49.942Z,11.90
2018-11-11T23:46:57.915Z,11.90
2018-11-11T23:52:11.556Z,11.80
2018-11-11T23:57:29.954Z,11.80
